createdAt,value
2022-10-22T00:03:19.346Z,99932.96
2022-10-22T00:07:21.190Z,99933.15
2022-10-22T00:11:23.014Z,99934.11
2022-10-22T00:15:24.895Z,99928.94
2022-10-22T00:19:27.665Z,99924.23
2022-10-22T00:23:29.605Z,99915.23
2022-10-22T00:27:31.432Z,99904.16
2022-10-22T00:31:33.320Z,99901.55
2022-10-22T00:35:35.517Z,99901.30
2022-10-22T00:39:37.455Z,99893.96
2022-10-22T00:44:02.532Z,99893.48
2022-10-22T00:48:08.926Z,99890.55
2022-10-22T00:52:11.588Z,99881.61
2022-10-22T00:56:13.875Z,99882.77
2022-10-22T01:00:16.370Z,99873.39
2022-10-22T01:04:19.637Z,99863.27
2022-10-22T01:08:36.526Z,99852.22
2022-10-22T01:13:02.855Z,99855.83
2022-10-22T01:17:09.493Z,99869.11
2022-10-22T01:21:32.802Z,99865.71
2022-10-22T01:25:35.633Z,99855.61
2022-10-22T01:29:43.396Z,99858.26
2022-10-22T01:33:48.177Z,99869.45
2022-10-22T01:37:57.252Z,99865.50
2022-10-22T01:41:59.528Z,99854.98
2022-10-22T01:46:04.205Z,99843.94
2022-10-22T01:50:36.844Z,99847.32
2022-10-22T01:55:01.660Z,99838.65
2022-10-22T01:59:24.657Z,99833.27
2022-10-22T02:03:36.796Z,99827.02
2022-10-22T02:07:48.797Z,99831.63
2022-10-22T02:11:52.121Z,99830.42
2022-10-22T02:15:56.587Z,99831.64
2022-10-22T02:20:10.547Z,99825.61
2022-10-22T02:24:12.668Z,99817.10
2022-10-22T02:28:36.849Z,99819.04
2022-10-22T02:33:03.292Z,99815.24
2022-10-22T02:37:06.639Z,99821.52
2022-10-22T02:41:09.520Z,99827.07
2022-10-22T02:45:11.603Z,99820.56
2022-10-22T02:49:13.645Z,99815.30
2022-10-22T02:53:15.503Z,99811.02
2022-10-22T02:57:17.422Z,99808.59
2022-10-22T03:01:19.551Z,99801.04
2022-10-22T03:05:21.407Z,99803.81
2022-10-22T03:09:24.842Z,99801.79
2022-10-22T03:13:27.024Z,99803.48
2022-10-22T03:17:28.864Z,99800.09
2022-10-22T03:21:41.522Z,99802.20
2022-10-22T03:25:46.585Z,99805.48
2022-10-22T03:29:51.372Z,99809.38
2022-10-22T03:33:53.292Z,99810.61
2022-10-22T03:37:55.216Z,99809.79
2022-10-22T03:41:57.528Z,99803.89
2022-10-22T03:45:59.352Z,99795.41
2022-10-22T03:50:01.255Z,99800.60
2022-10-22T03:54:03.401Z,99807.70
2022-10-22T03:58:05.427Z,99823.27
2022-10-22T04:02:07.711Z,99826.50
2022-10-22T04:06:12.144Z,99819.04
2022-10-22T04:10:14.358Z,99810.22
2022-10-22T04:14:16.246Z,99800.25
2022-10-22T04:18:23.256Z,99790.27
2022-10-22T04:22:25.075Z,99772.24
2022-10-22T04:26:27.385Z,99773.35
2022-10-22T04:30:29.217Z,99774.80
2022-10-22T04:34:31.148Z,99782.85
2022-10-22T04:38:33.023Z,99781.95
2022-10-22T04:42:34.917Z,99775.11
2022-10-22T04:46:36.870Z,99757.92
2022-10-22T04:50:38.804Z,99754.92
2022-10-22T04:54:44.020Z,99752.95
2022-10-22T04:58:48.202Z,99750.58
2022-10-22T05:02:50.844Z,99748.30
2022-10-22T05:06:52.775Z,99750.41
2022-10-22T05:10:55.064Z,99751.85
2022-10-22T05:14:56.970Z,99759.88
2022-10-22T05:19:00.862Z,99758.84
2022-10-22T05:23:02.788Z,99761.98
2022-10-22T05:27:08.007Z,99768.67
2022-10-22T05:31:12.549Z,99773.20
2022-10-22T05:35:14.512Z,99779.15
2022-10-22T05:39:16.346Z,99786.23
2022-10-22T05:43:18.228Z,99785.46
2022-10-22T05:47:20.124Z,99782.58
2022-10-22T05:51:22.409Z,99781.91
2022-10-22T05:55:24.276Z,99785.42
2022-10-22T05:59:26.242Z,99782.72
2022-10-22T06:03:29.016Z,99779.73
2022-10-22T06:07:30.952Z,99783.23
2022-10-22T06:11:35.121Z,99784.10
2022-10-22T06:15:37.532Z,99779.98
2022-10-22T06:19:39.389Z,99779.70
2022-10-22T06:23:42.496Z,99774.54
2022-10-22T06:27:49.724Z,99778.44
2022-10-22T06:31:51.643Z,99787.13
2022-10-22T06:35:53.611Z,99804.73
2022-10-22T06:39:55.569Z,99797.09
2022-10-22T06:43:58.087Z,99797.76
2022-10-22T06:48:00.145Z,99783.96
2022-10-22T06:52:02.027Z,99784.59
2022-10-22T06:56:08.534Z,99800.64
2022-10-22T07:00:10.979Z,99781.73
2022-10-22T07:04:12.922Z,99797.73
2022-10-22T07:08:14.837Z,99803.77
2022-10-22T07:12:17.009Z,99796.16
2022-10-22T07:16:19.257Z,99811.83
2022-10-22T07:20:21.161Z,99812.77
2022-10-22T07:24:23.178Z,99829.54
2022-10-22T07:28:25.201Z,99847.39
2022-10-22T07:32:27.104Z,99836.20
2022-10-22T07:36:29.096Z,99829.45
2022-10-22T07:40:31.267Z,99830.40
2022-10-22T07:44:33.579Z,99814.62
2022-10-22T07:48:36.713Z,99800.55
2022-10-22T07:52:38.930Z,99796.05
2022-10-22T07:56:41.097Z,99797.66
2022-10-22T08:00:43.377Z,99812.15
2022-10-22T08:04:45.254Z,99817.79
2022-10-22T08:08:47.188Z,99818.58
2022-10-22T08:12:49.083Z,99826.15
2022-10-22T08:16:50.968Z,99835.63
2022-10-22T08:20:53.326Z,99841.20
2022-10-22T08:24:55.322Z,99847.48
2022-10-22T08:28:57.708Z,99847.16
2022-10-22T08:32:59.700Z,99852.36
2022-10-22T08:37:21.744Z,99854.54
2022-10-22T08:41:29.248Z,99859.55
2022-10-22T08:45:50.480Z,99861.46
2022-10-22T08:49:56.583Z,99862.27
2022-10-22T08:54:16.608Z,99854.23
2022-10-22T08:58:19.761Z,99845.50
2022-10-22T09:02:45.863Z,99847.27
2022-10-22T09:06:50.835Z,99843.55
2022-10-22T09:11:21.516Z,99844.39
2022-10-22T09:15:23.357Z,99852.29
2022-10-22T09:19:31.265Z,99847.80
2022-10-22T09:23:44.712Z,99846.61
2022-10-22T09:27:47.949Z,99850.63
2022-10-22T09:31:49.839Z,99854.70
2022-10-22T09:35:55.053Z,99860.65
2022-10-22T09:40:03.192Z,99855.91
2022-10-22T09:44:06.713Z,99859.22
2022-10-22T09:48:18.541Z,99850.56
2022-10-22T09:52:28.936Z,99847.20
2022-10-22T09:56:37.160Z,99846.58
2022-10-22T10:00:40.480Z,99843.15
2022-10-22T10:04:53.451Z,99844.45
2022-10-22T10:08:56.814Z,99844.16
2022-10-22T10:13:38.962Z,99843.59
2022-10-22T10:18:26.092Z,99835.64
2022-10-22T10:22:53.026Z,99841.40
2022-10-22T10:27:00.652Z,99837.98
2022-10-22T10:31:21.236Z,99831.55
2022-10-22T10:35:38.548Z,99841.16
2022-10-22T10:39:49.759Z,99836.99
2022-10-22T10:44:09.935Z,99839.38
2022-10-22T10:48:27.483Z,99839.64
2022-10-22T10:52:42.218Z,99838.16
2022-10-22T10:56:55.986Z,99832.05
2022-10-22T11:01:22.561Z,99828.59
2022-10-22T11:05:45.793Z,99833.08
2022-10-22T11:10:00.309Z,99842.59
2022-10-22T11:14:11.099Z,99846.69
2022-10-22T11:18:20.528Z,99839.34
2022-10-22T11:22:31.656Z,99834.13
2022-10-22T11:26:46.531Z,99824.41
2022-10-22T11:30:57.140Z,99819.66
2022-10-22T11:35:02.625Z,99815.08
2022-10-22T11:39:04.728Z,99811.48
2022-10-22T11:43:09.205Z,99807.55
2022-10-22T11:47:23.571Z,99803.71
2022-10-22T11:51:35.522Z,99803.05
2022-10-22T11:55:47.642Z,99807.98
2022-10-22T11:59:52.839Z,99804.36
2022-10-22T12:03:57.458Z,99804.57
2022-10-22T12:08:20.300Z,99810.13
2022-10-22T12:12:22.843Z,99809.54
2022-10-22T12:16:37.673Z,99808.32
2022-10-22T12:20:53.714Z,99802.59
2022-10-22T12:25:00.542Z,99797.49
2022-10-22T12:29:09.938Z,99799.63
2022-10-22T12:33:22.856Z,99803.53
2022-10-22T12:37:24.810Z,99808.27
2022-10-22T12:41:34.743Z,99809.27
2022-10-22T12:45:37.944Z,99809.11
2022-10-22T12:49:44.289Z,99804.08
2022-10-22T12:53:50.325Z,99805.64
2022-10-22T12:57:52.802Z,99805.44
2022-10-22T13:01:56.357Z,99801.37
2022-10-22T13:06:31.789Z,99800.08
2022-10-22T13:10:36.740Z,99798.61
2022-10-22T13:14:38.642Z,99783.89
2022-10-22T13:18:41.263Z,99776.46
2022-10-22T13:22:59.607Z,99780.54
2022-10-22T13:27:01.770Z,99794.38
2022-10-22T13:31:19.016Z,99794.86
2022-10-22T13:35:25.020Z,99789.86
2022-10-22T13:39:26.828Z,99785.49
2022-10-22T13:43:28.716Z,99776.05
2022-10-22T13:47:30.613Z,99783.76
2022-10-22T13:51:34.660Z,99787.27
2022-10-22T13:55:36.534Z,99777.14
2022-10-22T13:59:38.425Z,99770.52
2022-10-22T14:03:40.503Z,99774.77
2022-10-22T14:07:42.654Z,99777.31
2022-10-22T14:11:44.748Z,99766.48
2022-10-22T14:15:49.804Z,99762.08
2022-10-22T14:19:51.783Z,99760.60
2022-10-22T14:23:54.079Z,99758.20
2022-10-22T14:27:56.088Z,99755.53
2022-10-22T14:31:57.996Z,99754.10
2022-10-22T14:36:00.698Z,99761.55
2022-10-22T14:40:02.731Z,99763.64
2022-10-22T14:44:04.567Z,99773.88
2022-10-22T14:48:06.396Z,99774.44
2022-10-22T14:52:11.711Z,99789.88
2022-10-22T14:56:22.409Z,99799.44
2022-10-22T15:00:24.434Z,99800.54
2022-10-22T15:04:27.664Z,99794.68
2022-10-22T15:08:30.150Z,99785.85
2022-10-22T15:12:32.100Z,99777.86
2022-10-22T15:16:34.010Z,99771.80
2022-10-22T15:20:35.825Z,99771.45
2022-10-22T15:24:38.288Z,99771.50
2022-10-22T15:28:41.557Z,99772.80
2022-10-22T15:32:43.780Z,99777.19
2022-10-22T15:36:46.013Z,99778.69
2022-10-22T15:40:47.884Z,99777.64
2022-10-22T15:44:57.517Z,99785.30
2022-10-22T15:48:59.372Z,99790.02
2022-10-22T15:53:01.195Z,99791.49
2022-10-22T15:57:07.935Z,99796.21
2022-10-22T16:01:12.566Z,99801.13
2022-10-22T16:05:14.519Z,99801.30
2022-10-22T16:09:19.927Z,99802.52
2022-10-22T16:13:23.803Z,99802.01
2022-10-22T16:17:25.630Z,99802.69
2022-10-22T16:21:27.518Z,99804.99
2022-10-22T16:25:29.367Z,99812.44
2022-10-22T16:29:31.244Z,99814.36
2022-10-22T16:33:41.377Z,99814.88
2022-10-22T16:37:46.449Z,99812.72
2022-10-22T16:41:48.289Z,99812.81
2022-10-22T16:45:50.532Z,99810.38
2022-10-22T16:49:52.317Z,99811.06
2022-10-22T16:53:55.496Z,99811.45
2022-10-22T16:57:57.361Z,99812.13
2022-10-22T17:01:59.401Z,99810.45
2022-10-22T17:06:03.693Z,99812.66
2022-10-22T17:10:08.486Z,99815.91
2022-10-22T17:14:10.789Z,99817.58
2022-10-22T17:18:12.616Z,99820.95
2022-10-22T17:22:17.689Z,99819.34
2022-10-22T17:26:22.218Z,99819.15
2022-10-22T17:30:27.234Z,99821.91
2022-10-22T17:34:32.716Z,99822.20
2022-10-22T17:38:35.061Z,99830.84
2022-10-22T17:42:36.937Z,99830.34
2022-10-22T17:46:39.470Z,99830.48
2022-10-22T17:50:45.853Z,99823.20
2022-10-22T17:54:52.721Z,99827.61
2022-10-22T17:58:55.699Z,99828.65
2022-10-22T18:03:00.008Z,99829.30
2022-10-22T18:07:01.860Z,99830.98
2022-10-22T18:11:09.018Z,99830.52
2022-10-22T18:15:11.230Z,99833.69
2022-10-22T18:19:19.153Z,99835.42
2022-10-22T18:23:20.960Z,99833.81
2022-10-22T18:27:22.830Z,99835.15
2022-10-22T18:31:26.174Z,99834.21
2022-10-22T18:35:31.626Z,99834.95
2022-10-22T18:39:34.546Z,99832.90
2022-10-22T18:43:36.831Z,99833.77
2022-10-22T18:47:41.801Z,99839.40
2022-10-22T18:51:44.789Z,99837.97
2022-10-22T18:55:46.617Z,99836.92
2022-10-22T18:59:48.648Z,99836.55
2022-10-22T19:03:52.816Z,99839.13
2022-10-22T19:07:54.821Z,99840.33
2022-10-22T19:11:56.930Z,99839.80
2022-10-22T19:16:03.349Z,99843.89
2022-10-22T19:20:05.792Z,99847.43
2022-10-22T19:24:07.693Z,99850.45
2022-10-22T19:28:09.501Z,99850.33
2022-10-22T19:32:12.860Z,99851.20
2022-10-22T19:36:18.644Z,99858.02
2022-10-22T19:44:30.465Z,99860.98
2022-10-22T19:48:32.374Z,99866.20
2022-10-22T19:52:34.185Z,99869.98
2022-10-22T19:56:37.316Z,99872.70
2022-10-22T20:00:39.303Z,99873.67
2022-10-22T20:04:41.403Z,99880.06
2022-10-22T20:08:44.245Z,99882.69
2022-10-22T20:12:46.110Z,99886.17
2022-10-22T20:16:48.004Z,99889.64
2022-10-22T20:20:50.272Z,99891.81
2022-10-22T20:24:52.177Z,99894.23
2022-10-22T20:28:55.304Z,99888.15
2022-10-22T20:32:58.688Z,99889.50
2022-10-22T20:37:01.717Z,99894.30
2022-10-22T20:41:06.161Z,99894.45
2022-10-22T20:45:08.483Z,99894.10
2022-10-22T20:49:14.886Z,99898.70
2022-10-22T20:53:16.973Z,99899.71
2022-10-22T20:57:19.142Z,99898.11
2022-10-22T21:01:23.427Z,99898.23
2022-10-22T21:05:25.303Z,99901.73
2022-10-22T21:09:27.756Z,99904.20
2022-10-22T21:13:34.083Z,99905.22
2022-10-22T21:17:35.968Z,99905.87
2022-10-22T21:21:37.924Z,99908.34
2022-10-22T21:25:42.075Z,99912.59
2022-10-22T21:29:45.916Z,99917.54
2022-10-22T21:33:49.737Z,99913.57
2022-10-22T21:37:51.676Z,99912.42
2022-10-22T21:41:53.519Z,99911.45
2022-10-22T21:46:08.722Z,99910.83
2022-10-22T21:50:10.903Z,99909.14
2022-10-22T21:54:12.899Z,99906.68
2022-10-22T21:58:14.759Z,99905.95
2022-10-22T22:02:16.680Z,99903.53
2022-10-22T22:06:22.029Z,99902.83
2022-10-22T22:10:26.123Z,99903.11
2022-10-22T22:14:27.953Z,99902.07
2022-10-22T22:18:30.064Z,99904.20
2022-10-22T22:22:31.940Z,99910.93
2022-10-22T22:26:34.391Z,99917.27
2022-10-22T22:30:36.211Z,99922.39
2022-10-22T22:34:38.024Z,99926.86
2022-10-22T22:38:40.557Z,99931.39
2022-10-22T22:42:42.383Z,99936.27
2022-10-22T22:46:44.402Z,99936.39
2022-10-22T22:50:46.196Z,99936.05
2022-10-22T22:54:48.147Z,99940.19
2022-10-22T22:58:50.260Z,99943.64
2022-10-22T23:02:55.445Z,99949.73
2022-10-22T23:06:57.456Z,99956.29
2022-10-22T23:11:15.616Z,99957.63
2022-10-22T23:15:17.507Z,99962.13
2022-10-22T23:19:21.916Z,99961.48
2022-10-22T23:23:23.729Z,99963.98
2022-10-22T23:27:25.563Z,99963.81
2022-10-22T23:31:27.736Z,99967.81
2022-10-22T23:35:29.710Z,99971.61
2022-10-22T23:39:31.586Z,99978.41
2022-10-22T23:43:35.635Z,99976.72
2022-10-22T23:47:37.489Z,99978.92
2022-10-22T23:51:40.352Z,99987.73
2022-10-22T23:55:43.652Z,99991.33
2022-10-22T23:59:45.481Z,99996.10
